Time;durP1;ratioP1;P1;durP2;ratioP2;P2;SDS_P1;SDS_P2;PMS_P1;PMS_P2;Temp;Humidity;BMP_temperature;BMP_pressure;BME280_temperature;BME280_humidity;BME280_pressure;Samples;Min_cycle;Max_cycle;Signal;HPM_P1;HPM_P2
2021/10/20 00:00:24;;;;;;;3.85;1.52;;;;;;;23.44;44.93;100953.78;4995726;28;20066;-55
2021/10/20 00:02:50;;;;;;;4.72;1.88;;;;;;;23.46;44.29;100957.16;4995126;28;20105;-55
2021/10/20 00:05:18;;;;;;;4.70;1.58;;;;;;;23.46;44.63;100957.16;4994052;28;20065;-56
2021/10/20 00:07:48;;;;;;;4.80;1.75;;;;;;;23.44;45.05;100948.31;4995210;28;20015;-58
2021/10/20 00:10:15;;;;;;;3.08;1.30;;;;;;;23.47;44.21;100939.69;4995458;28;20534;-57
2021/10/20 00:12:41;;;;;;;1.80;1.50;;;;;;;23.46;44.43;100938.00;4994070;28;20391;-58
2021/10/20 00:15:09;;;;;;;4.38;1.58;;;;;;;23.46;44.58;100937.16;5010098;28;20038;-55
2021/10/20 00:17:35;;;;;;;2.58;1.48;;;;;;;23.46;44.20;100935.28;4994240;28;20052;-57
2021/10/20 00:20:09;;;;;;;2.63;1.58;;;;;;;23.43;45.02;100926.63;4994987;28;20513;-55
2021/10/20 00:22:36;;;;;;;4.50;1.75;;;;;;;23.41;44.08;100926.88;4994024;28;20034;-58
2021/10/20 00:25:02;;;;;;;3.03;1.50;;;;;;;23.41;44.27;100921.41;4994578;28;20105;-58
2021/10/20 00:27:28;;;;;;;2.25;1.35;;;;;;;23.41;44.51;100924.13;4994729;28;20057;-58
2021/10/20 00:29:54;;;;;;;2.53;1.20;;;;;;;23.39;44.89;100928.97;4994754;28;20057;-58
2021/10/20 00:32:19;;;;;;;3.22;1.52;;;;;;;23.35;44.17;100922.19;4993247;28;20034;-58
2021/10/20 00:34:45;;;;;;;9.80;2.03;;;;;;;23.37;44.84;100920.09;4993500;28;20050;-55
2021/10/20 00:37:10;;;;;;;3.08;1.38;;;;;;;23.38;44.47;100915.50;4994785;28;20042;-58
2021/10/20 00:39:36;;;;;;;2.17;1.40;;;;;;;23.36;44.81;100918.44;4994677;28;20038;-57
2021/10/20 00:42:01;;;;;;;2.42;1.23;;;;;;;23.34;44.75;100908.75;4993668;28;20361;-58
2021/10/20 00:44:27;;;;;;;2.58;1.38;;;;;;;23.34;44.16;100917.78;5009486;28;20420;-58
2021/10/20 00:46:52;;;;;;;3.42;2.20;;;;;;;23.31;44.26;100910.00;4994472;28;20023;-58
2021/10/20 00:49:17;;;;;;;1.92;1.05;;;;;;;23.30;43.89;100902.84;4994315;28;20032;-58
2021/10/20 00:51:43;;;;;;;4.22;1.75;;;;;;;23.29;44.50;100900.31;4994437;28;20035;-58
2021/10/20 00:54:08;;;;;;;3.03;1.00;;;;;;;23.27;44.68;100897.81;4993357;28;20483;-58
2021/10/20 00:56:34;;;;;;;2.67;1.30;;;;;;;23.25;44.07;100885.41;4994028;28;20033;-58
2021/10/20 00:59:00;;;;;;;4.85;1.88;;;;;;;23.20;44.10;100888.75;5009397;28;20479;-57
2021/10/20 01:01:25;;;;;;;1.98;1.27;;;;;;;23.20;44.72;100892.31;4992894;28;20034;-57
2021/10/20 01:03:51;;;;;;;4.90;1.45;;;;;;;23.19;44.11;100884.34;4994626;28;20036;-58
2021/10/20 01:06:17;;;;;;;2.05;1.27;;;;;;;23.13;43.87;100868.78;4994842;28;20475;-58
2021/10/20 01:08:42;;;;;;;2.10;1.10;;;;;;;23.16;44.71;100879.31;4993988;28;20030;-57
2021/10/20 01:11:08;;;;;;;2.42;1.30;;;;;;;23.17;43.91;100881.00;4994532;28;20370;-57
2021/10/20 01:13:33;;;;;;;2.75;1.17;;;;;;;23.18;43.79;100879.91;4992826;28;20121;-58
2021/10/20 01:16:00;;;;;;;3.58;1.50;;;;;;;23.20;44.55;100875.09;4992856;28;20038;-58
2021/10/20 01:18:25;;;;;;;3.65;1.50;;;;;;;23.15;44.39;100869.41;5009058;28;20031;-58
2021/10/20 01:20:51;;;;;;;2.45;1.27;;;;;;;23.15;44.53;100869.41;4994081;28;20085;-58
2021/10/20 01:23:21;;;;;;;1.55;1.13;;;;;;;23.17;44.43;100861.88;4992870;28;20034;-58
2021/10/20 01:25:47;;;;;;;8.00;2.05;;;;;;;23.17;44.44;100870.06;4994078;28;20022;-58
2021/10/20 01:28:12;;;;;;;2.53;1.33;;;;;;;23.15;44.05;100867.53;4994666;28;20105;-57
2021/10/20 01:30:38;;;;;;;1.98;1.20;;;;;;;23.13;44.17;100855.13;4993203;28;20496;-57
2021/10/20 01:33:03;;;;;;;2.70;1.20;;;;;;;23.12;44.23;100857.00;4995884;28;20409;-57
2021/10/20 01:35:29;;;;;;;3.50;1.27;;;;;;;23.12;44.18;100864.34;4980037;28;20054;-57
2021/10/20 01:37:58;;;;;;;2.15;1.48;;;;;;;23.10;43.67;100864.59;4998155;28;20058;-57
2021/10/20 01:40:23;;;;;;;3.38;1.70;;;;;;;23.09;44.28;100864.78;4997944;28;20030;-57
2021/10/20 01:42:48;;;;;;;4.10;1.40;;;;;;;23.07;43.66;100865.00;4997725;28;20367;-59
2021/10/20 01:45:14;;;;;;;2.00;1.63;;;;;;;23.10;44.59;100863.75;4998044;28;20386;-58
2021/10/20 01:47:40;;;;;;;2.65;1.50;;;;;;;23.12;44.53;100858.91;4997985;28;20023;-58
2021/10/20 01:50:10;;;;;;;3.20;2.13;;;;;;;23.04;44.62;100838.09;4997563;28;20026;-58
2021/10/20 01:52:36;;;;;;;2.42;1.38;;;;;;;23.06;44.38;100846.09;4996934;28;20030;-58
2021/10/20 01:55:02;;;;;;;4.38;1.70;;;;;;;23.05;44.43;100845.25;4998105;28;20034;-58
2021/10/20 01:57:27;;;;;;;3.42;1.88;;;;;;;23.03;43.57;100847.31;4997731;28;20050;-58
2021/10/20 01:59:52;;;;;;;2.70;1.73;;;;;;;23.03;44.54;100835.59;4997349;28;20033;-57
2021/10/20 02:02:19;;;;;;;7.28;1.60;;;;;;;23.02;43.75;100833.88;4997302;28;20077;-58
2021/10/20 02:04:45;;;;;;;3.05;1.70;;;;;;;23.01;43.86;100829.47;4997966;28;20026;-58
2021/10/20 02:07:10;;;;;;;3.40;1.65;;;;;;;23.01;44.48;100827.56;4997393;28;20030;-58
2021/10/20 02:09:36;;;;;;;4.85;1.75;;;;;;;23.01;43.60;100824.00;4997930;28;20493;-58
2021/10/20 02:12:02;;;;;;;5.88;1.67;;;;;;;23.00;43.64;100830.53;4997304;28;20034;-58
2021/10/20 02:14:27;;;;;;;3.15;1.38;;;;;;;23.00;44.51;100822.34;4997880;28;20030;-58
2021/10/20 02:16:52;;;;;;;3.78;1.58;;;;;;;23.00;43.78;100822.34;4997101;28;20080;-57
2021/10/20 02:19:18;;;;;;;2.40;1.73;;;;;;;22.98;43.74;100822.53;4995891;28;20041;-59
2021/10/20 02:21:43;;;;;;;4.63;1.52;;;;;;;22.97;44.26;100803.63;4995960;28;20026;-58
2021/10/20 02:24:09;;;;;;;3.20;1.65;;;;;;;22.93;44.04;100810.53;4997212;28;20034;-57
2021/10/20 02:26:34;;;;;;;2.53;1.75;;;;;;;22.92;44.18;100814.34;4996519;28;20030;-58
2021/10/20 02:28:59;;;;;;;2.25;1.42;;;;;;;22.96;44.65;100801.94;4996061;28;20104;-58
2021/10/20 02:31:25;;;;;;;5.57;1.50;;;;;;;22.95;43.79;100789.31;4996777;28;20041;-58
2021/10/20 02:33:50;;;;;;;5.95;1.65;;;;;;;22.94;44.14;100793.13;4996713;28;20058;-57
2021/10/20 02:36:16;;;;;;;2.58;1.65;;;;;;;22.93;44.66;100785.97;4995842;28;20022;-58
2021/10/20 02:38:42;;;;;;;1.70;1.17;;;;;;;22.92;43.97;100789.75;4997179;28;20093;-58
2021/10/20 02:41:07;;;;;;;3.38;1.50;;;;;;;22.92;44.94;100790.56;4996751;28;20030;-58
2021/10/20 02:43:35;;;;;;;1.33;1.23;;;;;;;22.92;43.88;100782.38;4996900;28;20061;-58
2021/10/20 02:46:01;;;;;;;3.67;1.60;;;;;;;22.96;44.69;100778.19;4996098;28;20030;-57
2021/10/20 02:48:26;;;;;;;1.75;1.23;;;;;;;22.95;44.56;100775.66;4996826;28;20093;-58
2021/10/20 02:50:52;;;;;;;4.30;2.05;;;;;;;22.97;44.79;100787.22;4995383;28;20018;-57
2021/10/20 02:53:17;;;;;;;2.05;1.52;;;;;;;22.97;44.71;100770.84;4996602;28;20031;-57
2021/10/20 02:55:42;;;;;;;3.53;1.75;;;;;;;22.98;43.87;100769.75;4996326;28;20077;-58
2021/10/20 02:58:08;;;;;;;2.40;1.42;;;;;;;22.99;44.87;100774.19;4996632;28;20038;-57
2021/10/20 03:00:33;;;;;;;2.83;1.70;;;;;;;23.01;44.58;100758.41;4979403;28;20042;-57
2021/10/20 03:02:58;;;;;;;2.40;1.65;;;;;;;22.99;44.43;100741.41;4996694;28;20079;-57
2021/10/20 03:05:24;;;;;;;2.63;1.52;;;;;;;23.02;44.10;100757.38;4996324;28;20022;-58
2021/10/20 03:07:50;;;;;;;3.38;1.88;;;;;;;23.02;44.60;100751.91;4996444;28;20385;-58
2021/10/20 03:10:17;;;;;;;6.05;1.80;;;;;;;22.97;44.28;100743.50;4996347;28;20031;-58
2021/10/20 03:12:42;;;;;;;2.92;2.17;;;;;;;23.01;43.93;100755.69;4996660;28;20360;-57
2021/10/20 03:15:09;;;;;;;4.50;1.90;;;;;;;22.99;44.09;100753.19;5011482;28;20033;-57
2021/10/20 03:17:35;;;;;;;3.03;1.95;;;;;;;23.01;44.99;100756.53;4996476;28;20026;-57
2021/10/20 03:20:00;;;;;;;6.25;2.03;;;;;;;23.00;44.04;100743.09;4996606;28;20373;-57
2021/10/20 03:22:26;;;;;;;1.83;1.60;;;;;;;22.99;44.36;100736.78;4995942;28;20026;-58
2021/10/20 03:24:51;;;;;;;1.90;1.60;;;;;;;23.02;44.54;100741.81;4996824;28;20042;-58
2021/10/20 03:27:17;;;;;;;2.33;1.35;;;;;;;23.02;44.95;100733.63;4996071;28;20113;-58
2021/10/20 03:29:43;;;;;;;3.10;1.80;;;;;;;23.01;44.67;100715.53;4996137;28;20046;-57
2021/10/20 03:32:09;;;;;;;3.83;1.83;;;;;;;23.03;44.27;100729.00;4996037;28;20117;-57
2021/10/20 03:34:34;;;;;;;4.18;1.90;;;;;;;23.05;44.13;100724.16;4995636;28;20054;-58
2021/10/20 03:36:59;;;;;;;4.25;1.60;;;;;;;23.05;44.05;100729.63;4996054;28;20475;-58
2021/10/20 03:39:25;;;;;;;3.05;1.98;;;;;;;23.05;44.76;100725.00;4995686;28;20054;-58
2021/10/20 03:41:50;;;;;;;4.70;1.95;;;;;;;23.05;44.28;100726.91;4995979;28;20473;-58
2021/10/20 03:44:15;;;;;;;2.80;1.60;;;;;;;23.08;44.41;100730.06;4995836;28;20366;-58
2021/10/20 03:46:41;;;;;;;3.25;1.65;;;;;;;23.10;44.97;100738.03;4995494;28;20057;-58
2021/10/20 03:49:06;;;;;;;2.63;1.67;;;;;;;23.10;44.62;100727.94;4996026;28;20089;-58
2021/10/20 03:51:32;;;;;;;3.08;2.00;;;;;;;23.09;44.72;100748.09;4995350;28;20077;-58
2021/10/20 03:53:57;;;;;;;6.97;2.20;;;;;;;23.09;44.03;100737.19;4994334;28;20037;-58
2021/10/20 03:56:22;;;;;;;5.40;2.30;;;;;;;23.08;44.53;100732.78;4994532;28;20382;-58
2021/10/20 03:58:48;;;;;;;5.00;1.95;;;;;;;23.04;44.86;100738.88;4995808;28;20439;-57
2021/10/20 04:01:13;;;;;;;5.88;1.65;;;;;;;23.06;45.08;100742.25;4995328;28;20113;-58
2021/10/20 04:03:38;;;;;;;3.35;1.90;;;;;;;23.07;44.90;100743.91;4995747;28;20026;-57
2021/10/20 04:06:04;;;;;;;5.63;2.13;;;;;;;23.06;44.67;100742.25;4995321;28;20510;-58
2021/10/20 04:08:29;;;;;;;3.58;2.35;;;;;;;23.06;44.27;100736.78;4994291;28;20049;-57
2021/10/20 04:10:55;;;;;;;1.70;1.55;;;;;;;23.06;44.37;100736.78;4995112;28;20034;-58
2021/10/20 04:13:20;;;;;;;2.60;1.75;;;;;;;23.04;45.10;100734.25;4995393;28;20192;-57
2021/10/20 04:15:46;;;;;;;2.65;1.40;;;;;;;23.04;44.03;100733.41;4995161;28;20030;-58
2021/10/20 04:18:11;;;;;;;3.63;2.15;;;;;;;23.02;45.11;100725.44;4994925;28;20490;-57
2021/10/20 04:20:36;;;;;;;4.43;1.85;;;;;;;23.02;45.12;100714.50;4995262;28;20034;-58
2021/10/20 04:23:02;;;;;;;2.42;1.63;;;;;;;23.04;44.21;100717.00;4995153;28;20390;-57
2021/10/20 04:25:27;;;;;;;5.45;1.95;;;;;;;23.04;44.05;100703.34;4995030;28;20034;-58
2021/10/20 04:27:52;;;;;;;8.65;2.10;;;;;;;23.03;44.21;100694.28;4995014;28;20471;-58
2021/10/20 04:30:20;;;;;;;3.78;2.40;;;;;;;23.04;45.27;100690.53;4994849;28;20071;-57
2021/10/20 04:32:46;;;;;;;3.30;2.00;;;;;;;23.02;45.04;100702.72;4994702;28;20034;-57
2021/10/20 04:35:17;;;;;;;6.10;1.77;;;;;;;23.03;45.12;100677.09;4994908;28;20144;-58
2021/10/20 04:37:43;;;;;;;1.90;1.75;;;;;;;23.03;45.26;100688.03;5009904;28;20026;-57
2021/10/20 04:40:09;;;;;;;4.95;1.85;;;;;;;23.03;45.36;100683.38;4994792;28;20038;-58
2021/10/20 04:42:35;;;;;;;3.67;1.85;;;;;;;23.05;44.31;100677.72;4994087;28;20475;-58
2021/10/20 04:45:01;;;;;;;4.63;2.55;;;;;;;23.02;45.05;100669.94;4994651;28;20105;-57
2021/10/20 04:47:26;;;;;;;2.97;1.67;;;;;;;23.02;44.66;100661.72;4995040;28;20015;-58
2021/10/20 04:49:52;;;;;;;3.45;1.73;;;;;;;23.03;44.29;100660.69;4993362;28;20034;-57
2021/10/20 04:52:22;;;;;;;3.58;1.88;;;;;;;23.00;44.56;100655.66;4994597;28;20501;-56
2021/10/20 04:54:47;;;;;;;3.67;2.30;;;;;;;22.99;44.22;100643.03;4993100;28;20092;-57
2021/10/20 04:57:13;;;;;;;12.93;2.00;;;;;;;22.98;44.69;100647.66;4994178;28;20031;-57
2021/10/20 04:59:38;;;;;;;3.75;2.20;;;;;;;22.98;44.83;100641.34;4994258;28;20117;-57
2021/10/20 05:02:03;;;;;;;8.05;2.55;;;;;;;22.95;44.78;100637.16;4994457;28;20418;-57
2021/10/20 05:04:29;;;;;;;3.10;2.20;;;;;;;22.96;45.05;100624.34;4993281;28;20023;-57
2021/10/20 05:06:55;;;;;;;4.13;1.98;;;;;;;22.97;45.04;100628.75;4994307;28;20085;-57
2021/10/20 05:09:20;;;;;;;3.88;2.35;;;;;;;23.01;44.52;100613.59;4993799;28;20026;-57
2021/10/20 05:11:45;;;;;;;3.83;1.85;;;;;;;22.93;44.93;100600.16;4994152;28;20097;-58
2021/10/20 05:14:11;;;;;;;6.57;1.98;;;;;;;22.99;45.56;100607.50;5009423;28;20058;-57
2021/10/20 05:16:36;;;;;;;9.70;3.25;;;;;;;22.97;45.20;100604.16;4994702;28;20366;-57
2021/10/20 05:19:02;;;;;;;5.47;2.15;;;;;;;22.98;45.42;100592.16;4992780;28;20466;-57
2021/10/20 05:21:27;;;;;;;5.47;2.22;;;;;;;22.98;45.69;100589.44;4993255;28;20033;-57
2021/10/20 05:23:52;;;;;;;3.00;2.35;;;;;;;22.97;44.63;100585.03;4992789;28;20482;-57
2021/10/20 05:26:18;;;;;;;7.60;2.25;;;;;;;22.96;45.79;100572.41;4994597;28;20371;-57
2021/10/20 05:28:44;;;;;;;3.42;1.90;;;;;;;22.95;44.74;100557.06;4994248;28;20088;-57
2021/10/20 05:31:09;;;;;;;3.95;2.55;;;;;;;22.93;44.76;100551.84;4994142;28;20034;-57
2021/10/20 05:33:34;;;;;;;6.07;2.30;;;;;;;22.95;45.62;100557.91;4994107;28;20026;-57
2021/10/20 05:36:00;;;;;;;5.25;2.47;;;;;;;22.95;45.75;100559.81;4994096;28;20040;-57
2021/10/20 05:38:25;;;;;;;4.72;2.20;;;;;;;22.93;44.91;100545.53;4994191;28;20041;-57
2021/10/20 05:40:50;;;;;;;5.70;2.33;;;;;;;22.90;45.30;100530.41;4994473;28;20116;-57
2021/10/20 05:43:16;;;;;;;11.52;2.53;;;;;;;22.89;44.94;100538.84;4994043;28;20030;-57
2021/10/20 05:45:41;;;;;;;4.25;2.67;;;;;;;22.88;45.83;100559.00;4994168;28;20048;-57
2021/10/20 05:48:06;;;;;;;5.82;2.35;;;;;;;22.87;44.73;100579.16;4994077;28;20433;-57
2021/10/20 05:50:32;;;;;;;3.33;2.42;;;;;;;22.84;45.95;100574.97;4994335;28;20040;-57
2021/10/20 05:52:57;;;;;;;5.43;2.83;;;;;;;22.83;45.61;100578.78;4994095;28;20117;-57
2021/10/20 05:55:23;;;;;;;3.63;2.10;;;;;;;22.82;45.57;100577.09;4993629;28;20034;-57
2021/10/20 05:57:48;;;;;;;2.95;2.38;;;;;;;22.84;45.09;100582.31;4993688;28;20034;-58
2021/10/20 06:00:14;;;;;;;7.60;2.45;;;;;;;22.82;45.46;100570.78;4993440;28;20073;-57
2021/10/20 06:02:40;;;;;;;5.65;2.15;;;;;;;22.87;45.69;100576.44;4994000;28;20035;-57
2021/10/20 06:05:06;;;;;;;5.97;2.05;;;;;;;22.83;46.13;100578.78;4993851;28;20057;-58
2021/10/20 06:07:32;;;;;;;5.03;2.45;;;;;;;22.79;45.50;100563.03;4994037;28;20030;-57
2021/10/20 06:09:57;;;;;;;4.93;2.55;;;;;;;22.78;45.94;100558.63;4993664;28;20459;-57
2021/10/20 06:12:23;;;;;;;3.72;2.42;;;;;;;22.77;45.61;100556.94;4992452;28;20030;-57
2021/10/20 06:14:50;;;;;;;4.65;2.60;;;;;;;22.70;45.38;100553.41;4993448;28;20037;-57
2021/10/20 06:17:15;;;;;;;6.57;2.40;;;;;;;22.67;45.67;100545.63;4993595;28;20074;-57
2021/10/20 06:19:41;;;;;;;4.53;2.25;;;;;;;22.70;45.20;100539.75;4994681;28;20042;-57
2021/10/20 06:22:06;;;;;;;7.25;2.13;;;;;;;22.71;46.19;100546.88;4997602;28;20037;-55
2021/10/20 06:24:32;;;;;;;3.45;2.25;;;;;;;22.69;45.44;100517.06;4997168;28;20047;-56
2021/10/20 06:26:57;;;;;;;4.35;2.38;;;;;;;22.69;46.19;100527.13;4997357;28;20129;-56
2021/10/20 06:29:25;;;;;;;8.00;2.50;;;;;;;22.69;45.41;100519.78;4997196;28;20026;-55
2021/10/20 06:31:50;;;;;;;3.25;2.25;;;;;;;22.71;45.43;100525.03;4997098;28;20425;-56
2021/10/20 06:34:15;;;;;;;5.43;2.50;;;;;;;22.74;45.91;100513.66;4996699;28;20062;-56
2021/10/20 06:36:41;;;;;;;6.32;2.33;;;;;;;22.74;45.60;100505.47;4996784;28;20062;-56
2021/10/20 06:39:06;;;;;;;6.07;2.58;;;;;;;22.76;45.57;100497.91;4996920;28;20026;-56
2021/10/20 06:41:32;;;;;;;3.97;2.00;;;;;;;22.75;45.83;100505.28;4997402;28;20053;-56
2021/10/20 06:43:57;;;;;;;6.28;2.17;;;;;;;22.80;45.85;100501.88;4996642;28;20046;-56
2021/10/20 06:46:23;;;;;;;5.15;2.80;;;;;;;22.83;46.60;100506.91;4996795;28;20027;-56
2021/10/20 06:48:48;;;;;;;7.35;3.38;;;;;;;22.83;45.65;100498.72;4997044;28;20518;-56
2021/10/20 06:51:14;;;;;;;5.00;2.45;;;;;;;22.84;46.43;100492.19;4995233;28;20042;-56
2021/10/20 06:53:39;;;;;;;6.45;3.13;;;;;;;22.86;45.79;100496.41;4996440;28;20054;-56
2021/10/20 06:56:07;;;;;;;5.30;2.28;;;;;;;22.88;46.14;100499.75;4996583;28;20145;-56
2021/10/20 06:58:33;;;;;;;5.93;2.38;;;;;;;22.91;46.73;100487.53;4996555;28;20045;-56
2021/10/20 07:00:58;;;;;;;4.57;2.60;;;;;;;22.93;46.59;100499.09;5011441;28;20394;-55
2021/10/20 07:03:24;;;;;;;4.82;2.08;;;;;;;22.96;46.05;100502.22;4996652;28;20038;-56
2021/10/20 07:05:49;;;;;;;5.10;2.70;;;;;;;23.00;45.94;100508.09;4995451;28;20026;-56
2021/10/20 07:08:14;;;;;;;5.50;2.25;;;;;;;23.00;46.20;100503.44;4996257;28;20033;-55
2021/10/20 07:10:40;;;;;;;3.50;2.15;;;;;;;23.03;46.75;100507.66;4996326;28;20105;-55
2021/10/20 07:13:06;;;;;;;4.60;2.45;;;;;;;23.08;46.50;100533.28;4996948;28;20072;-55
2021/10/20 07:15:31;;;;;;;3.33;2.28;;;;;;;23.14;45.77;100531.56;4996357;28;20093;-56
2021/10/20 07:17:56;;;;;;;5.60;3.13;;;;;;;23.16;46.28;100524.00;4996458;28;20030;-56
2021/10/20 07:20:22;;;;;;;4.28;2.42;;;;;;;23.19;45.61;100529.88;4996285;28;20026;-55
2021/10/20 07:22:48;;;;;;;3.75;2.55;;;;;;;23.24;46.48;100520.16;4995912;28;20036;-56
2021/10/20 07:25:14;;;;;;;5.68;2.47;;;;;;;23.28;46.58;100505.84;4996109;28;20041;-56
2021/10/20 07:27:40;;;;;;;3.80;2.15;;;;;;;23.34;46.29;100504.13;4995860;28;20093;-56
2021/10/20 07:30:07;;;;;;;4.20;2.20;;;;;;;23.35;45.64;100503.91;4995881;28;20475;-55
2021/10/20 07:32:32;;;;;;;5.47;3.22;;;;;;;23.36;45.62;100500.13;4994400;28;20038;-56
2021/10/20 07:34:58;;;;;;;3.78;2.65;;;;;;;23.38;46.55;100488.97;4995584;28;20058;-56
2021/10/20 07:37:23;;;;;;;2.03;1.63;;;;;;;23.40;45.89;100464.97;4995700;28;20565;-56
2021/10/20 07:39:49;;;;;;;4.53;2.90;;;;;;;23.47;45.54;100461.16;4995935;28;20034;-56
2021/10/20 07:42:14;;;;;;;4.43;3.15;;;;;;;23.51;46.41;100445.97;4995799;28;20065;-56
2021/10/20 07:44:40;;;;;;;4.70;2.15;;;;;;;23.52;45.95;100461.31;4996089;28;20026;-56
2021/10/20 07:47:05;;;;;;;4.00;2.70;;;;;;;23.54;45.49;100434.59;4995497;28;20018;-56
2021/10/20 07:49:31;;;;;;;4.93;2.17;;;;;;;23.56;45.41;100424.25;4994056;28;20041;-56
2021/10/20 07:51:57;;;;;;;3.83;2.22;;;;;;;23.56;46.11;100388.69;4995898;28;20026;-56
2021/10/20 07:54:25;;;;;;;5.40;2.33;;;;;;;23.58;46.24;100359.25;5010684;28;20348;-56
2021/10/20 07:56:52;;;;;;;6.40;2.83;;;;;;;23.61;45.96;100369.75;4995509;28;20034;-57
2021/10/20 07:59:18;;;;;;;4.03;2.50;;;;;;;23.67;45.15;100382.50;4995568;28;20038;-56
2021/10/20 08:01:43;;;;;;;4.25;2.63;;;;;;;23.71;46.14;100391.94;4995678;28;20098;-56
2021/10/20 08:04:09;;;;;;;8.77;2.58;;;;;;;23.80;45.98;100399.84;4995407;28;20034;-56
2021/10/20 08:06:34;;;;;;;8.63;2.63;;;;;;;24.00;45.50;100403.22;4995421;28;20034;-55
2021/10/20 08:09:00;;;;;;;6.53;2.45;;;;;;;24.25;45.21;100395.81;5006852;28;20034;-55
2021/10/20 08:11:25;;;;;;;5.60;2.53;;;;;;;24.40;45.42;100377.06;5014763;28;20041;-55
2021/10/20 08:13:50;;;;;;;4.82;2.63;;;;;;;24.53;44.56;100385.13;5014374;28;20033;-55
2021/10/20 08:16:53;;;;;;;4.93;2.63;;;;;;;24.88;44.22;100371.59;5014364;28;20372;-55
2021/10/20 08:19:19;;;;;;;7.60;2.65;;;;;;;24.88;44.64;100364.22;5014620;28;20411;-54
2021/10/20 08:21:45;;;;;;;4.32;2.33;;;;;;;24.97;44.21;100372.09;5014405;28;20070;-55
2021/10/20 08:24:11;;;;;;;3.70;2.42;;;;;;;25.09;44.05;100376.56;5014680;28;20040;-55
2021/10/20 08:26:36;;;;;;;3.50;2.40;;;;;;;25.23;44.19;100385.41;5014785;28;20467;-55
2021/10/20 08:29:02;;;;;;;5.13;2.85;;;;;;;25.08;44.15;100376.78;5014403;28;20037;-55
2021/10/20 08:31:27;;;;;;;4.93;2.70;;;;;;;24.98;44.31;100371.03;5014064;28;20034;-55
2021/10/20 08:33:53;;;;;;;3.80;2.40;;;;;;;24.78;44.51;100360.34;5014112;28;20566;-55
2021/10/20 08:36:18;;;;;;;7.90;2.80;;;;;;;24.64;44.85;100359.69;5014202;28;20026;-55
2021/10/20 08:38:43;;;;;;;5.45;2.80;;;;;;;24.42;44.70;100369.47;5013997;28;20079;-55
2021/10/20 08:41:09;;;;;;;5.53;3.08;;;;;;;24.29;45.46;100377.84;5013945;28;20052;-55
2021/10/20 08:43:35;;;;;;;5.38;2.55;;;;;;;24.19;45.14;100361.13;5013858;28;20112;-54
2021/10/20 08:46:00;;;;;;;4.55;2.95;;;;;;;24.10;44.97;100363.34;5014359;28;20037;-55
2021/10/20 08:48:29;;;;;;;8.98;2.83;;;;;;;24.05;45.03;100356.84;5013021;28;20052;-54
2021/10/20 08:50:58;;;;;;;7.40;2.20;;;;;;;23.99;45.91;100339.44;5012799;28;20029;-55
2021/10/20 08:53:24;;;;;;;6.13;3.10;;;;;;;23.89;45.52;100343.78;5013896;28;20022;-55
2021/10/20 08:55:50;;;;;;;6.78;2.92;;;;;;;23.79;45.76;100338.81;5013258;28;20041;-55
2021/10/20 08:58:16;;;;;;;4.05;2.20;;;;;;;23.75;45.93;100343.94;5014016;28;20029;-55
2021/10/20 09:00:42;;;;;;;4.03;2.85;;;;;;;23.80;45.59;100334.19;5014159;28;20401;-56
2021/10/20 09:03:07;;;;;;;6.35;3.10;;;;;;;23.82;45.80;100321.09;5013850;28;20128;-56
2021/10/20 09:05:33;;;;;;;3.65;2.33;;;;;;;24.16;45.13;100334.22;5014332;28;20471;-56
2021/10/20 09:07:58;;;;;;;5.82;3.55;;;;;;;24.39;45.13;100317.91;5013764;28;20026;-55
2021/10/20 09:40:45;;;;;;;5.03;2.53;;;;;;;26.65;42.90;100329.88;3959004;28;20068;-54
2021/10/20 09:43:14;;;;;;;6.97;2.78;;;;;;;26.97;42.76;100328.28;5014068;28;20038;-54
2021/10/20 09:45:41;;;;;;;4.35;2.30;;;;;;;26.70;43.05;100315.38;5013405;28;20033;-54
2021/10/20 09:48:09;;;;;;;5.90;2.90;;;;;;;26.52;43.49;100325.50;5013755;28;20029;-54
2021/10/20 09:51:07;;;;;;;5.63;2.03;;;;;;;26.38;43.71;100324.13;5013613;28;20457;-55
2021/10/20 09:53:38;;;;;;;4.15;3.03;;;;;;;26.33;43.76;100323.19;5012752;28;20168;-55
2021/10/20 09:56:30;;;;;;;5.50;2.50;;;;;;;26.09;43.99;100318.81;5016368;28;20100;-54
2021/10/20 09:58:57;;;;;;;4.80;2.70;;;;;;;25.97;44.16;100318.84;5017285;28;20030;-54
2021/10/20 10:01:24;;;;;;;3.72;2.33;;;;;;;25.96;44.25;100315.25;5017614;28;20041;-54
2021/10/20 10:03:51;;;;;;;6.97;2.70;;;;;;;25.96;44.00;100320.75;5016962;28;20036;-54
2021/10/20 10:06:16;;;;;;;2.90;2.20;;;;;;;25.96;43.92;100326.25;5017134;28;20033;-54
2021/10/20 10:08:43;;;;;;;10.82;2.80;;;;;;;25.81;44.52;100323.19;5016725;28;20033;-54
2021/10/20 10:11:08;;;;;;;6.05;2.60;;;;;;;25.74;44.38;100333.44;5016941;28;20080;-54
2021/10/20 10:13:54;;;;;;;3.55;2.42;;;;;;;25.63;44.57;100339.78;5016795;28;20033;-54
2021/10/20 10:16:22;;;;;;;6.47;2.45;;;;;;;25.58;44.13;100334.16;4998941;28;20038;-53
2021/10/20 10:18:48;;;;;;;2.50;2.10;;;;;;;25.49;44.42;100335.59;5016070;28;20022;-53
2021/10/20 10:21:33;;;;;;;4.63;2.50;;;;;;;25.40;44.92;100326.84;5017464;28;20116;-55
2021/10/20 10:24:01;;;;;;;4.13;2.30;;;;;;;25.37;44.55;100315.53;5017217;28;20025;-54
2021/10/20 10:26:27;;;;;;;4.00;2.03;;;;;;;25.33;45.01;100314.34;5017085;28;20072;-54
2021/10/20 10:29:18;;;;;;;2.72;2.05;;;;;;;25.33;44.90;100325.31;5016875;28;20025;-54
2021/10/20 10:31:44;;;;;;;6.78;2.67;;;;;;;25.33;44.79;100328.06;4994227;28;20041;-54
2021/10/20 10:34:25;;;;;;;2.65;1.90;;;;;;;25.39;44.68;100327.09;5017670;28;20410;-53
2021/10/20 14:10:16;;;;;;;4.53;2.28;;;;;;;24.77;47.39;100123.84;5821938;23;20316;-82
2021/10/20 14:15:24;;;;;;;4.03;2.65;;;;;;;24.55;47.08;100076.22;5656637;23;20049;-80
2021/10/20 14:17:50;;;;;;;3.92;2.80;;;;;;;24.75;47.02;100106.84;4986527;23;20065;-59
2021/10/20 14:20:15;;;;;;;7.00;2.70;;;;;;;24.80;46.89;100106.97;4975045;28;20482;-59
2021/10/20 14:22:41;;;;;;;3.95;2.65;;;;;;;24.71;47.18;100085.63;4996930;28;20034;-59
2021/10/20 14:25:10;;;;;;;3.97;2.65;;;;;;;24.83;46.34;100101.03;4997247;28;20034;-59
2021/10/20 14:27:35;;;;;;;3.63;2.45;;;;;;;24.87;46.60;100104.13;4996905;28;20057;-59
2021/10/20 14:30:01;;;;;;;5.82;2.70;;;;;;;24.85;46.76;100098.88;4996766;28;20549;-59
2021/10/20 14:32:26;;;;;;;4.85;3.10;;;;;;;24.83;47.10;100097.44;4979443;28;20034;-59
2021/10/20 14:34:52;;;;;;;3.55;2.45;;;;;;;24.86;46.89;100106.03;4963408;28;20372;-59
2021/10/20 14:37:18;;;;;;;4.20;2.53;;;;;;;24.89;47.29;100110.19;4986391;28;20069;-60
2021/10/20 14:39:43;;;;;;;5.97;2.28;;;;;;;24.89;47.06;100100.06;4989917;28;20115;-60
2021/10/20 14:42:28;;;;;;;4.72;3.08;;;;;;;24.90;46.94;100100.91;4995070;28;20026;-60
2021/10/20 14:44:55;;;;;;;3.70;2.47;;;;;;;24.87;46.86;100096.72;4994390;28;20529;-60
2021/10/20 14:47:20;;;;;;;4.25;2.90;;;;;;;24.88;46.81;100092.91;4997002;28;20054;-60
2021/10/20 14:49:45;;;;;;;5.28;2.85;;;;;;;24.84;47.10;100089.00;4996683;28;20487;-60
2021/10/20 14:52:11;;;;;;;9.90;2.80;;;;;;;24.82;47.20;100087.53;4996513;28;20117;-60
2021/10/20 14:54:36;;;;;;;5.03;2.45;;;;;;;24.78;47.11;100072.66;4997942;28;20446;-60
2021/10/20 14:57:05;;;;;;;4.03;2.42;;;;;;;24.76;47.01;100072.88;4996214;28;20386;-60
2021/10/20 14:59:30;;;;;;;3.45;2.55;;;;;;;24.75;46.91;100060.25;4996334;28;20034;-60
2021/10/20 15:01:55;;;;;;;3.97;2.90;;;;;;;24.74;47.19;100055.84;4996215;28;20378;-60
2021/10/20 15:04:21;;;;;;;3.30;2.03;;;;;;;24.73;46.98;100056.94;4993440;28;20026;-60
2021/10/20 15:06:46;;;;;;;4.05;2.85;;;;;;;24.71;47.63;100059.06;4996155;28;20514;-60
2021/10/20 15:09:11;;;;;;;6.10;2.92;;;;;;;24.68;47.64;100042.28;4996126;28;20035;-59
2021/10/20 15:11:37;;;;;;;2.55;2.35;;;;;;;24.64;47.25;100050.16;4996445;28;20038;-60
2021/10/20 15:14:02;;;;;;;4.05;2.67;;;;;;;24.60;47.19;100035.25;4996299;28;20462;-60
2021/10/20 15:16:28;;;;;;;6.07;2.75;;;;;;;24.60;47.36;100029.78;4996074;28;20026;-59
2021/10/20 15:18:58;;;;;;;6.78;2.83;;;;;;;24.56;47.17;100016.81;4975274;28;20054;-59
2021/10/20 15:21:34;;;;;;;4.25;2.28;;;;;;;24.52;47.96;100010.97;4975174;28;20039;-60
2021/10/20 15:24:00;;;;;;;4.40;2.58;;;;;;;24.54;47.80;100008.81;4976765;28;20073;-60
2021/10/20 15:26:26;;;;;;;7.80;2.20;;;;;;;24.52;47.60;100010.97;4966679;28;20468;-61